YMX weather

Montreal International (Mirabel) Airport
Montréal, Quebec, Canada

Public forecast

Using degrees Celsius for public forecast. Weather courtesy of forecast.io.

Current aviation weather report (METAR) for Montreal International (Mirabel) Airport

Retrieved 2020/01/21 22:00 UTC (29 minutes ago):

CYMX 212200Z 21004KT 25SM BKN028 BKN100 M10/M16 A3034 RMK SC5AC2 SLP283

Aviation forecast (TAF) for Montreal International (Mirabel) Airport

Retrieved 2020/01/21 18:42 UTC (4 hours ago):

TAF CYMX 211738Z 2118/2218 22008KT P6SM BKN120 FM212300 22005KT P6SM OVC025 TEMPO 2123/2204 2SM -SN OVC012 FM220400 22005KT P6SM OVC012 TEMPO 2204/2208 4SM -SN FM221700 23008KT P6SM OVC015 RMK NXT FCST BY 220000Z